sensor_id;sensor_type;location;lat;lon;timestamp;P1;durP1;ratioP1;P2;durP2;ratioP2
47778;SDS011;33538;48.432;11.350;2023-08-21T00:00:42;6.57;;;3.83;;
47778;SDS011;33538;48.432;11.350;2023-08-21T00:03:09;7.50;;;4.47;;
47778;SDS011;33538;48.432;11.350;2023-08-21T00:05:36;5.72;;;4.65;;
47778;SDS011;33538;48.432;11.350;2023-08-21T00:08:03;7.00;;;4.60;;
47778;SDS011;33538;48.432;11.350;2023-08-21T00:10:30;6.03;;;4.10;;
47778;SDS011;33538;48.432;11.350;2023-08-21T00:12:57;9.32;;;5.07;;
47778;SDS011;33538;48.432;11.350;2023-08-21T00:15:24;6.13;;;4.65;;
47778;SDS011;33538;48.432;11.350;2023-08-21T00:17:52;10.45;;;4.97;;
47778;SDS011;33538;48.432;11.350;2023-08-21T00:20:19;4.75;;;3.95;;
47778;SDS011;33538;48.432;11.350;2023-08-21T00:22:46;6.97;;;5.03;;
47778;SDS011;33538;48.432;11.350;2023-08-21T00:25:13;8.02;;;3.75;;
47778;SDS011;33538;48.432;11.350;2023-08-21T00:27:39;4.97;;;4.32;;
47778;SDS011;33538;48.432;11.350;2023-08-21T00:30:07;6.30;;;4.30;;
47778;SDS011;33538;48.432;11.350;2023-08-21T00:32:34;5.65;;;4.35;;
47778;SDS011;33538;48.432;11.350;2023-08-21T00:35:03;5.75;;;4.53;;
47778;SDS011;33538;48.432;11.350;2023-08-21T00:37:30;5.68;;;4.38;;
47778;SDS011;33538;48.432;11.350;2023-08-21T00:39:57;6.95;;;5.10;;
47778;SDS011;33538;48.432;11.350;2023-08-21T00:42:24;5.72;;;4.20;;
47778;SDS011;33538;48.432;11.350;2023-08-21T00:44:51;5.97;;;4.47;;
47778;SDS011;33538;48.432;11.350;2023-08-21T00:47:18;6.05;;;4.90;;
47778;SDS011;33538;48.432;11.350;2023-08-21T00:49:45;7.25;;;4.55;;
47778;SDS011;33538;48.432;11.350;2023-08-21T00:52:13;6.30;;;5.30;;
47778;SDS011;33538;48.432;11.350;2023-08-21T00:54:41;7.28;;;5.53;;
47778;SDS011;33538;48.432;11.350;2023-08-21T00:57:09;7.40;;;5.13;;
47778;SDS011;33538;48.432;11.350;2023-08-21T00:59:36;8.32;;;5.30;;
47778;SDS011;33538;48.432;11.350;2023-08-21T01:02:04;9.30;;;5.55;;
47778;SDS011;33538;48.432;11.350;2023-08-21T01:04:31;7.38;;;5.35;;
47778;SDS011;33538;48.432;11.350;2023-08-21T01:06:57;6.45;;;4.68;;
47778;SDS011;33538;48.432;11.350;2023-08-21T01:09:27;6.28;;;4.68;;
47778;SDS011;33538;48.432;11.350;2023-08-21T01:12:02;6.78;;;4.65;;
47778;SDS011;33538;48.432;11.350;2023-08-21T01:14:36;7.78;;;5.03;;
47778;SDS011;33538;48.432;11.350;2023-08-21T01:17:08;7.75;;;4.88;;
47778;SDS011;33538;48.432;11.350;2023-08-21T01:19:37;6.95;;;5.13;;
47778;SDS011;33538;48.432;11.350;2023-08-21T01:22:07;5.80;;;4.88;;
47778;SDS011;33538;48.432;11.350;2023-08-21T01:24:35;9.35;;;5.22;;
47778;SDS011;33538;48.432;11.350;2023-08-21T01:27:02;8.43;;;5.78;;
47778;SDS011;33538;48.432;11.350;2023-08-21T01:29:29;8.15;;;5.05;;
47778;SDS011;33538;48.432;11.350;2023-08-21T01:31:58;7.50;;;5.35;;
47778;SDS011;33538;48.432;11.350;2023-08-21T01:34:30;9.43;;;4.47;;
47778;SDS011;33538;48.432;11.350;2023-08-21T01:36:59;5.70;;;4.28;;
47778;SDS011;33538;48.432;11.350;2023-08-21T01:39:26;5.40;;;4.00;;
47778;SDS011;33538;48.432;11.350;2023-08-21T01:41:56;5.72;;;4.35;;
47778;SDS011;33538;48.432;11.350;2023-08-21T01:44:23;7.43;;;4.53;;
47778;SDS011;33538;48.432;11.350;2023-08-21T01:46:50;5.68;;;4.18;;
47778;SDS011;33538;48.432;11.350;2023-08-21T01:49:16;6.47;;;4.60;;
47778;SDS011;33538;48.432;11.350;2023-08-21T01:51:43;7.18;;;4.88;;
47778;SDS011;33538;48.432;11.350;2023-08-21T01:54:10;7.90;;;4.78;;
47778;SDS011;33538;48.432;11.350;2023-08-21T01:56:37;6.22;;;4.18;;
47778;SDS011;33538;48.432;11.350;2023-08-21T01:59:05;5.80;;;4.20;;
47778;SDS011;33538;48.432;11.350;2023-08-21T02:01:32;7.60;;;4.82;;
47778;SDS011;33538;48.432;11.350;2023-08-21T02:03:59;7.80;;;5.07;;
47778;SDS011;33538;48.432;11.350;2023-08-21T02:06:25;6.43;;;4.65;;
47778;SDS011;33538;48.432;11.350;2023-08-21T02:08:52;6.32;;;4.75;;
47778;SDS011;33538;48.432;11.350;2023-08-21T02:11:19;6.93;;;5.03;;
47778;SDS011;33538;48.432;11.350;2023-08-21T02:13:46;7.20;;;4.68;;
47778;SDS011;33538;48.432;11.350;2023-08-21T02:16:14;5.65;;;4.45;;
47778;SDS011;33538;48.432;11.350;2023-08-21T02:18:41;8.88;;;5.18;;
47778;SDS011;33538;48.432;11.350;2023-08-21T02:21:08;7.18;;;4.85;;
47778;SDS011;33538;48.432;11.350;2023-08-21T02:23:34;5.60;;;4.63;;
47778;SDS011;33538;48.432;11.350;2023-08-21T02:26:01;7.28;;;5.05;;
47778;SDS011;33538;48.432;11.350;2023-08-21T02:28:28;8.05;;;5.55;;
47778;SDS011;33538;48.432;11.350;2023-08-21T02:30:55;7.50;;;5.03;;
47778;SDS011;33538;48.432;11.350;2023-08-21T02:33:23;6.80;;;5.07;;
47778;SDS011;33538;48.432;11.350;2023-08-21T02:35:50;6.68;;;5.32;;
47778;SDS011;33538;48.432;11.350;2023-08-21T02:38:17;8.98;;;4.82;;
47778;SDS011;33538;48.432;11.350;2023-08-21T02:40:43;6.30;;;5.07;;
47778;SDS011;33538;48.432;11.350;2023-08-21T02:43:10;8.13;;;5.15;;
47778;SDS011;33538;48.432;11.350;2023-08-21T02:45:37;6.82;;;5.20;;
47778;SDS011;33538;48.432;11.350;2023-08-21T02:48:04;7.88;;;4.70;;
47778;SDS011;33538;48.432;11.350;2023-08-21T02:50:33;6.88;;;5.07;;
47778;SDS011;33538;48.432;11.350;2023-08-21T02:52:59;10.77;;;5.28;;
47778;SDS011;33538;48.432;11.350;2023-08-21T02:55:26;6.95;;;5.25;;
47778;SDS011;33538;48.432;11.350;2023-08-21T02:57:53;8.10;;;5.43;;
47778;SDS011;33538;48.432;11.350;2023-08-21T03:00:20;7.80;;;5.30;;
47778;SDS011;33538;48.432;11.350;2023-08-21T03:02:46;8.63;;;4.72;;
47778;SDS011;33538;48.432;11.350;2023-08-21T03:05:13;6.60;;;4.55;;
47778;SDS011;33538;48.432;11.350;2023-08-21T03:07:42;8.30;;;5.53;;
47778;SDS011;33538;48.432;11.350;2023-08-21T03:10:09;7.53;;;5.32;;
47778;SDS011;33538;48.432;11.350;2023-08-21T03:12:35;7.35;;;5.53;;
47778;SDS011;33538;48.432;11.350;2023-08-21T03:15:03;8.23;;;5.90;;
47778;SDS011;33538;48.432;11.350;2023-08-21T03:17:30;9.32;;;5.63;;
47778;SDS011;33538;48.432;11.350;2023-08-21T03:19:57;9.63;;;5.10;;
47778;SDS011;33538;48.432;11.350;2023-08-21T03:22:24;5.60;;;4.88;;
47778;SDS011;33538;48.432;11.350;2023-08-21T03:24:52;8.07;;;5.97;;
47778;SDS011;33538;48.432;11.350;2023-08-21T03:27:19;7.63;;;5.22;;
47778;SDS011;33538;48.432;11.350;2023-08-21T03:29:46;6.63;;;4.97;;
47778;SDS011;33538;48.432;11.350;2023-08-21T03:32:12;6.05;;;4.68;;
47778;SDS011;33538;48.432;11.350;2023-08-21T03:34:39;8.60;;;5.30;;
47778;SDS011;33538;48.432;11.350;2023-08-21T03:37:06;7.53;;;5.60;;
47778;SDS011;33538;48.432;11.350;2023-08-21T03:39:33;7.75;;;5.55;;
47778;SDS011;33538;48.432;11.350;2023-08-21T03:42:02;8.75;;;5.25;;
47778;SDS011;33538;48.432;11.350;2023-08-21T03:44:29;6.45;;;5.10;;
47778;SDS011;33538;48.432;11.350;2023-08-21T03:46:56;6.70;;;4.88;;
47778;SDS011;33538;48.432;11.350;2023-08-21T03:49:22;7.10;;;5.18;;
47778;SDS011;33538;48.432;11.350;2023-08-21T03:51:49;6.28;;;4.88;;
47778;SDS011;33538;48.432;11.350;2023-08-21T03:54:16;8.82;;;5.38;;
47778;SDS011;33538;48.432;11.350;2023-08-21T03:56:43;8.23;;;5.32;;
47778;SDS011;33538;48.432;11.350;2023-08-21T03:59:11;8.82;;;5.70;;
47778;SDS011;33538;48.432;11.350;2023-08-21T04:01:38;6.82;;;5.05;;
47778;SDS011;33538;48.432;11.350;2023-08-21T04:04:05;6.72;;;4.95;;
47778;SDS011;33538;48.432;11.350;2023-08-21T04:06:32;7.50;;;5.63;;
47778;SDS011;33538;48.432;11.350;2023-08-21T04:08:58;8.18;;;5.05;;
47778;SDS011;33538;48.432;11.350;2023-08-21T04:11:25;6.63;;;4.88;;
47778;SDS011;33538;48.432;11.350;2023-08-21T04:13:52;9.10;;;6.25;;
47778;SDS011;33538;48.432;11.350;2023-08-21T04:16:20;8.18;;;5.70;;
47778;SDS011;33538;48.432;11.350;2023-08-21T04:18:47;8.45;;;5.32;;
47778;SDS011;33538;48.432;11.350;2023-08-21T04:21:14;8.30;;;4.63;;
47778;SDS011;33538;48.432;11.350;2023-08-21T04:23:41;7.05;;;4.70;;
47778;SDS011;33538;48.432;11.350;2023-08-21T04:26:08;6.10;;;4.60;;
47778;SDS011;33538;48.432;11.350;2023-08-21T04:28:35;6.35;;;4.50;;
47778;SDS011;33538;48.432;11.350;2023-08-21T04:31:04;7.13;;;5.45;;
47778;SDS011;33538;48.432;11.350;2023-08-21T04:33:32;7.63;;;5.28;;
47778;SDS011;33538;48.432;11.350;2023-08-21T04:36:00;7.43;;;5.25;;
47778;SDS011;33538;48.432;11.350;2023-08-21T04:38:27;6.53;;;4.65;;
47778;SDS011;33538;48.432;11.350;2023-08-21T04:40:53;7.28;;;4.88;;
47778;SDS011;33538;48.432;11.350;2023-08-21T04:43:20;9.88;;;5.13;;
47778;SDS011;33538;48.432;11.350;2023-08-21T04:45:47;6.30;;;5.00;;
47778;SDS011;33538;48.432;11.350;2023-08-21T04:48:14;6.78;;;5.00;;
47778;SDS011;33538;48.432;11.350;2023-08-21T04:50:42;7.70;;;5.28;;
47778;SDS011;33538;48.432;11.350;2023-08-21T04:53:09;6.90;;;5.03;;
47778;SDS011;33538;48.432;11.350;2023-08-21T04:55:36;7.10;;;5.45;;
47778;SDS011;33538;48.432;11.350;2023-08-21T04:58:03;10.32;;;5.13;;
47778;SDS011;33538;48.432;11.350;2023-08-21T05:00:30;10.20;;;6.15;;
47778;SDS011;33538;48.432;11.350;2023-08-21T05:02:57;8.82;;;5.97;;
47778;SDS011;33538;48.432;11.350;2023-08-21T05:05:23;8.00;;;5.15;;
47778;SDS011;33538;48.432;11.350;2023-08-21T05:07:52;7.68;;;5.38;;
47778;SDS011;33538;48.432;11.350;2023-08-21T05:10:19;8.18;;;5.97;;
47778;SDS011;33538;48.432;11.350;2023-08-21T05:12:46;6.60;;;5.45;;
47778;SDS011;33538;48.432;11.350;2023-08-21T05:15:13;7.10;;;5.22;;
47778;SDS011;33538;48.432;11.350;2023-08-21T05:17:40;7.32;;;4.93;;
47778;SDS011;33538;48.432;11.350;2023-08-21T05:20:07;7.35;;;5.25;;
47778;SDS011;33538;48.432;11.350;2023-08-21T05:22:35;8.73;;;5.28;;
47778;SDS011;33538;48.432;11.350;2023-08-21T05:25:04;8.15;;;5.10;;
47778;SDS011;33538;48.432;11.350;2023-08-21T05:27:31;7.85;;;5.15;;
47778;SDS011;33538;48.432;11.350;2023-08-21T05:29:58;9.45;;;5.20;;
47778;SDS011;33538;48.432;11.350;2023-08-21T05:32:25;7.78;;;5.65;;
47778;SDS011;33538;48.432;11.350;2023-08-21T05:34:52;7.25;;;5.72;;
47778;SDS011;33538;48.432;11.350;2023-08-21T05:37:18;8.30;;;5.88;;
47778;SDS011;33538;48.432;11.350;2023-08-21T05:39:45;8.45;;;5.72;;
47778;SDS011;33538;48.432;11.350;2023-08-21T05:42:13;9.02;;;5.85;;
47778;SDS011;33538;48.432;11.350;2023-08-21T05:44:40;9.18;;;6.38;;
47778;SDS011;33538;48.432;11.350;2023-08-21T05:47:07;9.25;;;6.63;;
47778;SDS011;33538;48.432;11.350;2023-08-21T05:49:33;10.23;;;7.07;;
47778;SDS011;33538;48.432;11.350;2023-08-21T05:52:00;12.43;;;7.32;;
47778;SDS011;33538;48.432;11.350;2023-08-21T05:54:27;10.15;;;6.75;;
47778;SDS011;33538;48.432;11.350;2023-08-21T05:56:54;8.63;;;6.20;;
47778;SDS011;33538;48.432;11.350;2023-08-21T05:59:29;10.52;;;7.35;;
47778;SDS011;33538;48.432;11.350;2023-08-21T06:01:57;11.15;;;7.50;;
47778;SDS011;33538;48.432;11.350;2023-08-21T06:04:24;10.50;;;7.13;;
47778;SDS011;33538;48.432;11.350;2023-08-21T06:06:51;11.73;;;7.32;;
47778;SDS011;33538;48.432;11.350;2023-08-21T06:09:19;10.68;;;7.10;;
47778;SDS011;33538;48.432;11.350;2023-08-21T06:11:45;11.93;;;7.55;;
47778;SDS011;33538;48.432;11.350;2023-08-21T06:14:12;9.27;;;7.25;;
47778;SDS011;33538;48.432;11.350;2023-08-21T06:16:40;9.73;;;6.72;;
47778;SDS011;33538;48.432;11.350;2023-08-21T06:19:07;8.82;;;6.68;;
47778;SDS011;33538;48.432;11.350;2023-08-21T06:21:34;10.07;;;7.10;;
47778;SDS011;33538;48.432;11.350;2023-08-21T06:24:01;17.33;;;7.30;;
47778;SDS011;33538;48.432;11.350;2023-08-21T06:26:28;11.50;;;7.80;;
47778;SDS011;33538;48.432;11.350;2023-08-21T06:28:55;11.10;;;7.13;;
47778;SDS011;33538;48.432;11.350;2023-08-21T06:31:21;10.00;;;6.03;;
47778;SDS011;33538;48.432;11.350;2023-08-21T06:33:50;11.02;;;7.15;;
47778;SDS011;33538;48.432;11.350;2023-08-21T06:36:16;10.57;;;7.13;;
47778;SDS011;33538;48.432;11.350;2023-08-21T06:38:43;9.82;;;7.18;;
47778;SDS011;33538;48.432;11.350;2023-08-21T06:41:10;11.48;;;6.75;;
47778;SDS011;33538;48.432;11.350;2023-08-21T06:43:38;10.55;;;6.72;;
47778;SDS011;33538;48.432;11.350;2023-08-21T06:46:10;8.45;;;6.28;;
47778;SDS011;33538;48.432;11.350;2023-08-21T06:48:37;9.60;;;6.72;;
47778;SDS011;33538;48.432;11.350;2023-08-21T06:51:06;9.27;;;6.20;;
47778;SDS011;33538;48.432;11.350;2023-08-21T06:53:33;9.02;;;6.53;;
47778;SDS011;33538;48.432;11.350;2023-08-21T06:56:00;11.70;;;6.85;;
47778;SDS011;33538;48.432;11.350;2023-08-21T06:58:27;9.45;;;6.00;;
47778;SDS011;33538;48.432;11.350;2023-08-21T07:00:54;9.65;;;6.68;;
47778;SDS011;33538;48.432;11.350;2023-08-21T07:03:21;10.18;;;6.35;;
47778;SDS011;33538;48.432;11.350;2023-08-21T07:05:53;10.10;;;6.40;;
47778;SDS011;33538;48.432;11.350;2023-08-21T07:08:21;9.45;;;6.68;;
47778;SDS011;33538;48.432;11.350;2023-08-21T07:10:48;8.50;;;6.50;;
47778;SDS011;33538;48.432;11.350;2023-08-21T07:13:15;9.90;;;6.50;;
47778;SDS011;33538;48.432;11.350;2023-08-21T07:15:42;12.82;;;7.00;;
47778;SDS011;33538;48.432;11.350;2023-08-21T07:18:08;8.48;;;6.35;;
47778;SDS011;33538;48.432;11.350;2023-08-21T07:20:35;8.63;;;6.32;;
47778;SDS011;33538;48.432;11.350;2023-08-21T07:23:02;8.40;;;6.55;;
47778;SDS011;33538;48.432;11.350;2023-08-21T07:25:30;8.38;;;6.30;;
47778;SDS011;33538;48.432;11.350;2023-08-21T07:27:57;7.65;;;6.20;;
47778;SDS011;33538;48.432;11.350;2023-08-21T07:30:24;10.60;;;6.57;;
47778;SDS011;33538;48.432;11.350;2023-08-21T07:32:52;8.65;;;6.68;;
47778;SDS011;33538;48.432;11.350;2023-08-21T07:35:19;8.60;;;6.10;;
47778;SDS011;33538;48.432;11.350;2023-08-21T07:37:46;9.02;;;6.20;;
47778;SDS011;33538;48.432;11.350;2023-08-21T07:40:13;8.23;;;5.80;;
47778;SDS011;33538;48.432;11.350;2023-08-21T07:42:41;10.13;;;6.25;;
47778;SDS011;33538;48.432;11.350;2023-08-21T07:45:08;11.35;;;5.72;;
47778;SDS011;33538;48.432;11.350;2023-08-21T07:47:36;7.90;;;5.75;;
47778;SDS011;33538;48.432;11.350;2023-08-21T07:50:03;8.18;;;5.35;;
47778;SDS011;33538;48.432;11.350;2023-08-21T07:52:31;8.13;;;5.82;;
47778;SDS011;33538;48.432;11.350;2023-08-21T07:54:58;7.80;;;5.15;;
47778;SDS011;33538;48.432;11.350;2023-08-21T07:57:25;8.57;;;5.40;;
47778;SDS011;33538;48.432;11.350;2023-08-21T07:59:53;8.50;;;5.65;;
47778;SDS011;33538;48.432;11.350;2023-08-21T08:02:21;7.38;;;5.45;;
47778;SDS011;33538;48.432;11.350;2023-08-21T08:04:49;8.45;;;5.85;;
47778;SDS011;33538;48.432;11.350;2023-08-21T08:07:16;7.30;;;5.88;;
47778;SDS011;33538;48.432;11.350;2023-08-21T08:09:43;7.80;;;5.90;;
47778;SDS011;33538;48.432;11.350;2023-08-21T08:12:09;7.60;;;5.35;;
47778;SDS011;33538;48.432;11.350;2023-08-21T08:14:37;9.40;;;5.75;;
47778;SDS011;33538;48.432;11.350;2023-08-21T08:17:05;9.02;;;5.15;;
47778;SDS011;33538;48.432;11.350;2023-08-21T08:19:32;7.63;;;5.20;;
47778;SDS011;33538;48.432;11.350;2023-08-21T08:21:59;7.00;;;5.40;;
47778;SDS011;33538;48.432;11.350;2023-08-21T08:24:26;8.23;;;5.53;;
47778;SDS011;33538;48.432;11.350;2023-08-21T08:26:53;7.18;;;5.30;;
47778;SDS011;33538;48.432;11.350;2023-08-21T08:29:20;7.70;;;5.18;;
47778;SDS011;33538;48.432;11.350;2023-08-21T08:31:46;6.85;;;4.70;;
47778;SDS011;33538;48.432;11.350;2023-08-21T08:34:15;5.70;;;4.68;;
47778;SDS011;33538;48.432;11.350;2023-08-21T08:36:41;6.70;;;5.07;;
47778;SDS011;33538;48.432;11.350;2023-08-21T08:39:08;6.55;;;4.60;;
47778;SDS011;33538;48.432;11.350;2023-08-21T08:41:37;7.22;;;4.65;;
47778;SDS011;33538;48.432;11.350;2023-08-21T08:44:09;7.50;;;4.95;;
47778;SDS011;33538;48.432;11.350;2023-08-21T08:46:41;9.48;;;5.35;;
47778;SDS011;33538;48.432;11.350;2023-08-21T08:49:08;6.75;;;4.88;;
47778;SDS011;33538;48.432;11.350;2023-08-21T08:51:37;7.68;;;6.18;;
47778;SDS011;33538;48.432;11.350;2023-08-21T08:54:05;7.50;;;5.40;;
47778;SDS011;33538;48.432;11.350;2023-08-21T08:56:33;6.63;;;5.47;;
47778;SDS011;33538;48.432;11.350;2023-08-21T08:59:00;7.05;;;5.38;;
47778;SDS011;33538;48.432;11.350;2023-08-21T09:01:27;7.43;;;5.35;;
47778;SDS011;33538;48.432;11.350;2023-08-21T09:03:55;8.15;;;5.30;;
47778;SDS011;33538;48.432;11.350;2023-08-21T09:06:22;8.00;;;5.28;;
47778;SDS011;33538;48.432;11.350;2023-08-21T09:08:56;7.18;;;5.22;;
47778;SDS011;33538;48.432;11.350;2023-08-21T09:11:23;8.05;;;5.63;;
47778;SDS011;33538;48.432;11.350;2023-08-21T09:13:51;6.88;;;5.32;;
47778;SDS011;33538;48.432;11.350;2023-08-21T09:16:19;8.75;;;5.45;;
47778;SDS011;33538;48.432;11.350;2023-08-21T09:18:47;8.57;;;5.68;;
47778;SDS011;33538;48.432;11.350;2023-08-21T09:21:15;7.80;;;5.72;;
47778;SDS011;33538;48.432;11.350;2023-08-21T09:23:43;5.57;;;4.72;;
47778;SDS011;33538;48.432;11.350;2023-08-21T09:26:11;7.55;;;5.53;;
47778;SDS011;33538;48.432;11.350;2023-08-21T09:28:44;6.35;;;4.80;;
47778;SDS011;33538;48.432;11.350;2023-08-21T09:31:11;8.63;;;5.80;;
47778;SDS011;33538;48.432;11.350;2023-08-21T09:33:38;7.90;;;5.68;;
47778;SDS011;33538;48.432;11.350;2023-08-21T09:36:04;6.28;;;5.03;;
47778;SDS011;33538;48.432;11.350;2023-08-21T09:38:31;7.45;;;5.60;;
47778;SDS011;33538;48.432;11.350;2023-08-21T09:41:00;6.85;;;5.28;;
47778;SDS011;33538;48.432;11.350;2023-08-21T09:43:28;7.82;;;5.38;;
47778;SDS011;33538;48.432;11.350;2023-08-21T09:45:55;9.18;;;5.32;;
47778;SDS011;33538;48.432;11.350;2023-08-21T09:48:23;7.97;;;5.70;;
47778;SDS011;33538;48.432;11.350;2023-08-21T09:50:51;7.50;;;5.03;;
47778;SDS011;33538;48.432;11.350;2023-08-21T09:53:19;8.43;;;5.78;;
47778;SDS011;33538;48.432;11.350;2023-08-21T09:55:46;7.70;;;5.55;;
47778;SDS011;33538;48.432;11.350;2023-08-21T09:58:15;9.77;;;5.22;;
47778;SDS011;33538;48.432;11.350;2023-08-21T10:00:44;7.60;;;5.30;;
47778;SDS011;33538;48.432;11.350;2023-08-21T10:03:13;8.27;;;5.60;;
47778;SDS011;33538;48.432;11.350;2023-08-21T10:05:41;7.13;;;5.72;;
47778;SDS011;33538;48.432;11.350;2023-08-21T10:08:08;8.35;;;5.45;;
47778;SDS011;33538;48.432;11.350;2023-08-21T10:10:36;9.43;;;6.05;;
47778;SDS011;33538;48.432;11.350;2023-08-21T10:13:04;8.35;;;5.40;;
47778;SDS011;33538;48.432;11.350;2023-08-21T10:15:33;6.40;;;5.15;;
47778;SDS011;33538;48.432;11.350;2023-08-21T10:20:47;7.20;;;5.63;;
47778;SDS011;33538;48.432;11.350;2023-08-21T10:23:24;8.07;;;6.00;;
47778;SDS011;33538;48.432;11.350;2023-08-21T10:25:55;7.20;;;5.78;;
47778;SDS011;33538;48.432;11.350;2023-08-21T10:28:40;7.80;;;5.38;;
47778;SDS011;33538;48.432;11.350;2023-08-21T10:31:27;7.50;;;5.60;;
47778;SDS011;33538;48.432;11.350;2023-08-21T10:33:57;8.43;;;5.85;;
47778;SDS011;33538;48.432;11.350;2023-08-21T10:36:37;9.40;;;5.32;;
47778;SDS011;33538;48.432;11.350;2023-08-21T10:39:20;5.95;;;5.13;;
47778;SDS011;33538;48.432;11.350;2023-08-21T10:41:53;6.60;;;5.20;;
47778;SDS011;33538;48.432;11.350;2023-08-21T10:44:33;7.95;;;5.35;;
47778;SDS011;33538;48.432;11.350;2023-08-21T10:47:14;9.88;;;5.70;;
47778;SDS011;33538;48.432;11.350;2023-08-21T10:49:43;8.65;;;5.68;;
47778;SDS011;33538;48.432;11.350;2023-08-21T10:52:11;7.70;;;6.00;;
47778;SDS011;33538;48.432;11.350;2023-08-21T10:54:45;7.45;;;5.60;;
47778;SDS011;33538;48.432;11.350;2023-08-21T10:57:12;5.65;;;5.00;;
47778;SDS011;33538;48.432;11.350;2023-08-21T10:59:48;7.18;;;5.15;;
47778;SDS011;33538;48.432;11.350;2023-08-21T11:02:17;6.13;;;5.25;;
47778;SDS011;33538;48.432;11.350;2023-08-21T11:04:45;6.45;;;5.25;;
47778;SDS011;33538;48.432;11.350;2023-08-21T11:07:12;6.13;;;5.20;;
47778;SDS011;33538;48.432;11.350;2023-08-21T11:09:39;7.18;;;5.30;;
47778;SDS011;33538;48.432;11.350;2023-08-21T11:12:07;6.85;;;5.50;;
47778;SDS011;33538;48.432;11.350;2023-08-21T11:14:35;6.38;;;5.30;;
47778;SDS011;33538;48.432;11.350;2023-08-21T11:17:03;9.20;;;5.38;;
47778;SDS011;33538;48.432;11.350;2023-08-21T11:19:30;9.68;;;5.38;;
47778;SDS011;33538;48.432;11.350;2023-08-21T11:21:58;7.15;;;5.25;;
47778;SDS011;33538;48.432;11.350;2023-08-21T11:24:29;8.77;;;5.53;;
47778;SDS011;33538;48.432;11.350;2023-08-21T11:26:56;6.88;;;5.25;;
47778;SDS011;33538;48.432;11.350;2023-08-21T11:29:24;8.48;;;4.85;;
47778;SDS011;33538;48.432;11.350;2023-08-21T11:31:51;9.70;;;5.38;;
47778;SDS011;33538;48.432;11.350;2023-08-21T11:34:18;5.93;;;4.90;;
47778;SDS011;33538;48.432;11.350;2023-08-21T11:36:49;6.63;;;5.13;;
47778;SDS011;33538;48.432;11.350;2023-08-21T11:39:17;7.85;;;5.00;;
47778;SDS011;33538;48.432;11.350;2023-08-21T11:41:54;5.53;;;4.32;;
47778;SDS011;33538;48.432;11.350;2023-08-21T11:44:21;6.05;;;4.75;;
47778;SDS011;33538;48.432;11.350;2023-08-21T11:46:50;6.35;;;4.53;;
47778;SDS011;33538;48.432;11.350;2023-08-21T11:49:17;5.57;;;4.60;;
47778;SDS011;33538;48.432;11.350;2023-08-21T11:51:44;6.10;;;4.78;;
47778;SDS011;33538;48.432;11.350;2023-08-21T11:54:12;8.38;;;4.38;;
47778;SDS011;33538;48.432;11.350;2023-08-21T11:56:40;5.75;;;4.57;;
47778;SDS011;33538;48.432;11.350;2023-08-21T11:59:07;5.72;;;4.35;;
47778;SDS011;33538;48.432;11.350;2023-08-21T12:01:34;7.65;;;4.15;;
47778;SDS011;33538;48.432;11.350;2023-08-21T12:04:00;5.68;;;3.22;;
47778;SDS011;33538;48.432;11.350;2023-08-21T12:06:27;5.63;;;3.92;;
47778;SDS011;33538;48.432;11.350;2023-08-21T12:08:54;6.68;;;4.32;;
47778;SDS011;33538;48.432;11.350;2023-08-21T12:11:21;7.32;;;4.78;;
47778;SDS011;33538;48.432;11.350;2023-08-21T12:13:49;5.90;;;4.63;;
47778;SDS011;33538;48.432;11.350;2023-08-21T12:16:16;6.90;;;4.72;;
47778;SDS011;33538;48.432;11.350;2023-08-21T12:18:43;5.78;;;3.90;;
47778;SDS011;33538;48.432;11.350;2023-08-21T12:21:10;5.65;;;4.05;;
47778;SDS011;33538;48.432;11.350;2023-08-21T12:23:36;7.93;;;4.47;;
47778;SDS011;33538;48.432;11.350;2023-08-21T12:26:03;11.35;;;4.30;;
47778;SDS011;33538;48.432;11.350;2023-08-21T12:28:30;5.28;;;4.45;;
47778;SDS011;33538;48.432;11.350;2023-08-21T12:30:58;5.45;;;4.28;;
47778;SDS011;33538;48.432;11.350;2023-08-21T12:33:25;6.07;;;4.32;;
47778;SDS011;33538;48.432;11.350;2023-08-21T12:35:52;4.82;;;3.90;;
47778;SDS011;33538;48.432;11.350;2023-08-21T12:38:18;4.32;;;3.75;;
47778;SDS011;33538;48.432;11.350;2023-08-21T12:40:45;6.20;;;4.38;;
47778;SDS011;33538;48.432;11.350;2023-08-21T12:43:12;5.10;;;4.40;;
47778;SDS011;33538;48.432;11.350;2023-08-21T12:45:39;5.65;;;4.00;;
47778;SDS011;33538;48.432;11.350;2023-08-21T12:48:07;5.60;;;4.47;;
47778;SDS011;33538;48.432;11.350;2023-08-21T12:50:34;6.93;;;4.93;;
47778;SDS011;33538;48.432;11.350;2023-08-21T12:53:01;6.20;;;3.60;;
47778;SDS011;33538;48.432;11.350;2023-08-21T12:55:28;6.43;;;4.30;;
47778;SDS011;33538;48.432;11.350;2023-08-21T12:57:55;6.20;;;4.10;;
47778;SDS011;33538;48.432;11.350;2023-08-21T13:00:23;6.80;;;4.55;;
47778;SDS011;33538;48.432;11.350;2023-08-21T13:02:49;5.40;;;4.35;;
47778;SDS011;33538;48.432;11.350;2023-08-21T13:05:18;4.97;;;4.00;;
47778;SDS011;33538;48.432;11.350;2023-08-21T13:07:45;6.95;;;4.72;;
47778;SDS011;33538;48.432;11.350;2023-08-21T13:10:12;6.75;;;4.47;;
47778;SDS011;33538;48.432;11.350;2023-08-21T13:12:39;5.55;;;4.25;;
47778;SDS011;33538;48.432;11.350;2023-08-21T13:15:07;6.03;;;4.07;;
47778;SDS011;33538;48.432;11.350;2023-08-21T13:17:34;5.82;;;4.53;;
47778;SDS011;33538;48.432;11.350;2023-08-21T13:20:00;6.25;;;4.03;;
47778;SDS011;33538;48.432;11.350;2023-08-21T13:22:29;4.93;;;3.88;;
47778;SDS011;33538;48.432;11.350;2023-08-21T13:25:10;6.95;;;4.32;;
47778;SDS011;33538;48.432;11.350;2023-08-21T13:27:37;5.13;;;4.10;;
47778;SDS011;33538;48.432;11.350;2023-08-21T13:30:05;7.70;;;4.05;;
47778;SDS011;33538;48.432;11.350;2023-08-21T13:32:32;6.22;;;3.88;;
47778;SDS011;33538;48.432;11.350;2023-08-21T13:34:59;6.38;;;3.83;;
47778;SDS011;33538;48.432;11.350;2023-08-21T13:37:26;4.72;;;4.10;;
47778;SDS011;33538;48.432;11.350;2023-08-21T13:39:54;6.70;;;4.78;;
47778;SDS011;33538;48.432;11.350;2023-08-21T13:42:21;4.95;;;4.28;;
47778;SDS011;33538;48.432;11.350;2023-08-21T13:44:48;9.13;;;4.25;;
47778;SDS011;33538;48.432;11.350;2023-08-21T13:47:15;5.65;;;4.30;;
47778;SDS011;33538;48.432;11.350;2023-08-21T13:49:42;5.35;;;4.57;;
47778;SDS011;33538;48.432;11.350;2023-08-21T13:52:08;7.53;;;4.63;;
47778;SDS011;33538;48.432;11.350;2023-08-21T13:54:35;4.82;;;4.30;;
47778;SDS011;33538;48.432;11.350;2023-08-21T13:57:03;5.03;;;4.13;;
47778;SDS011;33538;48.432;11.350;2023-08-21T13:59:31;5.50;;;4.47;;
47778;SDS011;33538;48.432;11.350;2023-08-21T14:01:58;5.55;;;4.40;;
47778;SDS011;33538;48.432;11.350;2023-08-21T14:04:25;5.78;;;4.13;;
47778;SDS011;33538;48.432;11.350;2023-08-21T14:06:52;5.22;;;4.68;;
47778;SDS011;33538;48.432;11.350;2023-08-21T14:09:19;5.32;;;4.22;;
47778;SDS011;33538;48.432;11.350;2023-08-21T14:11:45;7.65;;;5.00;;
47778;SDS011;33538;48.432;11.350;2023-08-21T14:14:13;6.10;;;4.68;;
47778;SDS011;33538;48.432;11.350;2023-08-21T14:16:40;5.40;;;4.15;;
47778;SDS011;33538;48.432;11.350;2023-08-21T14:19:07;8.35;;;4.78;;
47778;SDS011;33538;48.432;11.350;2023-08-21T14:21:34;6.95;;;5.00;;
47778;SDS011;33538;48.432;11.350;2023-08-21T14:24:01;7.07;;;4.45;;
47778;SDS011;33538;48.432;11.350;2023-08-21T14:26:27;6.65;;;4.70;;
47778;SDS011;33538;48.432;11.350;2023-08-21T14:28:54;5.45;;;4.40;;
47778;SDS011;33538;48.432;11.350;2023-08-21T14:31:22;6.97;;;4.78;;
47778;SDS011;33538;48.432;11.350;2023-08-21T14:33:49;7.35;;;4.47;;
47778;SDS011;33538;48.432;11.350;2023-08-21T14:36:16;6.40;;;3.72;;
47778;SDS011;33538;48.432;11.350;2023-08-21T14:38:43;4.32;;;3.92;;